sensor_id;sensor_type;location;lat;lon;timestamp;P1;durP1;ratioP1;P2;durP2;ratioP2
209;SDS011;90;48.810;9.120;2023-11-21T00:00:44;4.27;;;2.60;;
209;SDS011;90;48.810;9.120;2023-11-21T00:03:11;4.23;;;3.37;;
209;SDS011;90;48.810;9.120;2023-11-21T00:05:40;3.03;;;2.40;;
209;SDS011;90;48.810;9.120;2023-11-21T00:08:07;3.83;;;2.30;;
209;SDS011;90;48.810;9.120;2023-11-21T00:10:35;4.20;;;2.43;;
209;SDS011;90;48.810;9.120;2023-11-21T00:13:03;5.03;;;2.37;;
209;SDS011;90;48.810;9.120;2023-11-21T00:15:30;7.40;;;2.53;;
209;SDS011;90;48.810;9.120;2023-11-21T00:17:57;6.57;;;2.40;;
209;SDS011;90;48.810;9.120;2023-11-21T00:20:24;4.47;;;2.30;;
209;SDS011;90;48.810;9.120;2023-11-21T00:22:50;5.40;;;2.30;;
209;SDS011;90;48.810;9.120;2023-11-21T00:25:17;3.50;;;2.40;;
209;SDS011;90;48.810;9.120;2023-11-21T00:27:46;2.93;;;2.30;;
209;SDS011;90;48.810;9.120;2023-11-21T00:30:13;2.73;;;2.43;;
209;SDS011;90;48.810;9.120;2023-11-21T00:32:40;3.00;;;2.43;;
209;SDS011;90;48.810;9.120;2023-11-21T00:35:07;4.03;;;2.67;;
209;SDS011;90;48.810;9.120;2023-11-21T00:37:35;5.13;;;2.20;;
209;SDS011;90;48.810;9.120;2023-11-21T00:40:04;4.03;;;2.30;;
209;SDS011;90;48.810;9.120;2023-11-21T00:42:32;6.00;;;2.47;;
209;SDS011;90;48.810;9.120;2023-11-21T00:45:00;7.57;;;3.00;;
209;SDS011;90;48.810;9.120;2023-11-21T00:47:28;3.67;;;3.00;;
209;SDS011;90;48.810;9.120;2023-11-21T00:49:55;3.53;;;2.70;;
209;SDS011;90;48.810;9.120;2023-11-21T00:52:22;3.67;;;2.57;;
209;SDS011;90;48.810;9.120;2023-11-21T00:54:48;8.73;;;3.30;;
209;SDS011;90;48.810;9.120;2023-11-21T00:57:15;4.70;;;2.67;;
209;SDS011;90;48.810;9.120;2023-11-21T00:59:42;5.43;;;2.73;;
209;SDS011;90;48.810;9.120;2023-11-21T01:02:10;5.00;;;2.90;;
209;SDS011;90;48.810;9.120;2023-11-21T01:04:37;4.00;;;2.80;;
209;SDS011;90;48.810;9.120;2023-11-21T01:07:04;6.37;;;2.90;;
209;SDS011;90;48.810;9.120;2023-11-21T01:09:31;4.23;;;3.10;;
209;SDS011;90;48.810;9.120;2023-11-21T01:11:58;5.27;;;3.20;;
209;SDS011;90;48.810;9.120;2023-11-21T01:14:26;3.43;;;2.87;;
209;SDS011;90;48.810;9.120;2023-11-21T01:16:53;4.63;;;2.97;;
209;SDS011;90;48.810;9.120;2023-11-21T01:19:21;5.80;;;2.63;;
209;SDS011;90;48.810;9.120;2023-11-21T01:21:48;7.77;;;2.90;;
209;SDS011;90;48.810;9.120;2023-11-21T01:24:15;2.37;;;2.17;;
209;SDS011;90;48.810;9.120;2023-11-21T01:26:42;3.77;;;2.33;;
209;SDS011;90;48.810;9.120;2023-11-21T01:29:10;3.00;;;2.47;;
209;SDS011;90;48.810;9.120;2023-11-21T01:31:37;2.40;;;2.20;;
209;SDS011;90;48.810;9.120;2023-11-21T01:34:03;5.50;;;2.50;;
209;SDS011;90;48.810;9.120;2023-11-21T01:36:32;2.80;;;2.43;;
209;SDS011;90;48.810;9.120;2023-11-21T01:38:59;5.00;;;2.00;;
209;SDS011;90;48.810;9.120;2023-11-21T01:41:26;4.73;;;2.50;;
209;SDS011;90;48.810;9.120;2023-11-21T01:43:53;2.23;;;2.10;;
209;SDS011;90;48.810;9.120;2023-11-21T01:46:20;2.50;;;2.03;;
209;SDS011;90;48.810;9.120;2023-11-21T01:48:48;3.70;;;2.37;;
209;SDS011;90;48.810;9.120;2023-11-21T01:51:15;5.70;;;2.40;;
209;SDS011;90;48.810;9.120;2023-11-21T01:53:44;2.77;;;2.20;;
209;SDS011;90;48.810;9.120;2023-11-21T01:56:11;2.50;;;2.10;;
209;SDS011;90;48.810;9.120;2023-11-21T01:58:39;4.50;;;2.50;;
209;SDS011;90;48.810;9.120;2023-11-21T02:01:06;3.60;;;2.33;;
209;SDS011;90;48.810;9.120;2023-11-21T02:03:34;4.67;;;2.17;;
209;SDS011;90;48.810;9.120;2023-11-21T02:06:01;4.33;;;2.10;;
209;SDS011;90;48.810;9.120;2023-11-21T02:08:28;6.43;;;2.40;;
209;SDS011;90;48.810;9.120;2023-11-21T02:10:56;3.70;;;2.40;;
209;SDS011;90;48.810;9.120;2023-11-21T02:13:23;2.73;;;2.40;;
209;SDS011;90;48.810;9.120;2023-11-21T02:15:50;4.33;;;2.50;;
209;SDS011;90;48.810;9.120;2023-11-21T02:18:19;4.13;;;2.17;;
209;SDS011;90;48.810;9.120;2023-11-21T02:20:47;5.13;;;2.17;;
209;SDS011;90;48.810;9.120;2023-11-21T02:23:15;7.23;;;2.73;;
209;SDS011;90;48.810;9.120;2023-11-21T02:25:43;4.53;;;2.07;;
209;SDS011;90;48.810;9.120;2023-11-21T02:28:09;3.27;;;1.90;;
209;SDS011;90;48.810;9.120;2023-11-21T02:30:37;3.67;;;2.13;;
209;SDS011;90;48.810;9.120;2023-11-21T02:33:04;2.27;;;2.13;;
209;SDS011;90;48.810;9.120;2023-11-21T02:35:32;3.03;;;2.10;;
209;SDS011;90;48.810;9.120;2023-11-21T02:37:59;5.27;;;2.00;;
209;SDS011;90;48.810;9.120;2023-11-21T02:40:29;2.90;;;1.83;;
209;SDS011;90;48.810;9.120;2023-11-21T02:42:56;3.13;;;2.00;;
209;SDS011;90;48.810;9.120;2023-11-21T02:45:24;4.70;;;2.30;;
209;SDS011;90;48.810;9.120;2023-11-21T02:47:51;4.27;;;2.00;;
209;SDS011;90;48.810;9.120;2023-11-21T02:50:21;2.87;;;2.13;;
209;SDS011;90;48.810;9.120;2023-11-21T02:52:48;3.67;;;2.60;;
209;SDS011;90;48.810;9.120;2023-11-21T02:55:15;3.27;;;2.00;;
209;SDS011;90;48.810;9.120;2023-11-21T02:57:43;2.90;;;2.07;;
209;SDS011;90;48.810;9.120;2023-11-21T03:00:10;2.50;;;2.10;;
209;SDS011;90;48.810;9.120;2023-11-21T03:02:38;2.23;;;1.90;;
209;SDS011;90;48.810;9.120;2023-11-21T03:05:05;2.50;;;1.93;;
209;SDS011;90;48.810;9.120;2023-11-21T03:07:33;2.20;;;2.03;;
209;SDS011;90;48.810;9.120;2023-11-21T03:10:00;4.07;;;2.27;;
209;SDS011;90;48.810;9.120;2023-11-21T03:12:28;2.60;;;1.80;;
209;SDS011;90;48.810;9.120;2023-11-21T03:14:56;5.03;;;2.10;;
209;SDS011;90;48.810;9.120;2023-11-21T03:17:24;3.67;;;1.83;;
209;SDS011;90;48.810;9.120;2023-11-21T03:19:50;2.40;;;2.20;;
209;SDS011;90;48.810;9.120;2023-11-21T03:22:18;1.90;;;1.87;;
209;SDS011;90;48.810;9.120;2023-11-21T03:24:45;3.03;;;2.27;;
209;SDS011;90;48.810;9.120;2023-11-21T03:27:11;3.90;;;2.10;;
209;SDS011;90;48.810;9.120;2023-11-21T03:29:38;2.67;;;1.67;;
209;SDS011;90;48.810;9.120;2023-11-21T03:32:06;3.80;;;2.00;;
209;SDS011;90;48.810;9.120;2023-11-21T03:34:34;3.40;;;2.10;;
209;SDS011;90;48.810;9.120;2023-11-21T03:37:01;2.00;;;1.90;;
209;SDS011;90;48.810;9.120;2023-11-21T03:39:28;2.50;;;1.70;;
209;SDS011;90;48.810;9.120;2023-11-21T03:41:54;2.47;;;1.87;;
209;SDS011;90;48.810;9.120;2023-11-21T03:44:21;1.80;;;1.60;;
209;SDS011;90;48.810;9.120;2023-11-21T03:46:48;2.95;;;1.90;;
209;SDS011;90;48.810;9.120;2023-11-21T03:49:16;4.40;;;1.77;;
209;SDS011;90;48.810;9.120;2023-11-21T03:51:43;2.33;;;1.80;;
209;SDS011;90;48.810;9.120;2023-11-21T03:54:09;2.20;;;1.90;;
209;SDS011;90;48.810;9.120;2023-11-21T03:56:36;3.57;;;1.60;;
209;SDS011;90;48.810;9.120;2023-11-21T03:59:03;3.40;;;1.80;;
209;SDS011;90;48.810;9.120;2023-11-21T04:01:29;6.20;;;2.00;;
209;SDS011;90;48.810;9.120;2023-11-21T04:03:56;2.90;;;2.10;;
209;SDS011;90;48.810;9.120;2023-11-21T04:06:24;2.87;;;2.00;;
209;SDS011;90;48.810;9.120;2023-11-21T04:08:51;2.10;;;1.80;;
209;SDS011;90;48.810;9.120;2023-11-21T04:11:18;2.63;;;1.60;;
209;SDS011;90;48.810;9.120;2023-11-21T04:13:45;3.40;;;1.87;;
209;SDS011;90;48.810;9.120;2023-11-21T04:16:12;2.73;;;1.40;;
209;SDS011;90;48.810;9.120;2023-11-21T04:18:38;3.13;;;1.70;;
209;SDS011;90;48.810;9.120;2023-11-21T04:21:05;2.93;;;1.60;;
209;SDS011;90;48.810;9.120;2023-11-21T04:23:34;1.80;;;1.50;;
209;SDS011;90;48.810;9.120;2023-11-21T04:26:01;2.07;;;1.77;;
209;SDS011;90;48.810;9.120;2023-11-21T04:28:28;3.13;;;2.03;;
209;SDS011;90;48.810;9.120;2023-11-21T04:30:55;2.70;;;1.77;;
209;SDS011;90;48.810;9.120;2023-11-21T04:33:22;1.70;;;1.40;;
209;SDS011;90;48.810;9.120;2023-11-21T04:35:50;2.30;;;1.90;;
209;SDS011;90;48.810;9.120;2023-11-21T04:38:17;1.93;;;1.53;;
209;SDS011;90;48.810;9.120;2023-11-21T04:40:45;2.50;;;1.83;;
209;SDS011;90;48.810;9.120;2023-11-21T04:43:12;3.17;;;1.90;;
209;SDS011;90;48.810;9.120;2023-11-21T04:45:39;2.90;;;2.00;;
209;SDS011;90;48.810;9.120;2023-11-21T04:48:06;3.20;;;1.70;;
209;SDS011;90;48.810;9.120;2023-11-21T04:50:33;3.47;;;1.90;;
209;SDS011;90;48.810;9.120;2023-11-21T04:53:00;2.30;;;1.60;;
209;SDS011;90;48.810;9.120;2023-11-21T04:55:26;2.30;;;1.77;;
209;SDS011;90;48.810;9.120;2023-11-21T04:57:55;2.77;;;1.90;;
209;SDS011;90;48.810;9.120;2023-11-21T05:00:22;2.57;;;1.97;;
209;SDS011;90;48.810;9.120;2023-11-21T05:02:49;2.83;;;1.60;;
209;SDS011;90;48.810;9.120;2023-11-21T05:05:15;2.07;;;1.70;;
209;SDS011;90;48.810;9.120;2023-11-21T05:07:42;2.83;;;1.53;;
209;SDS011;90;48.810;9.120;2023-11-21T05:10:09;2.00;;;1.90;;
209;SDS011;90;48.810;9.120;2023-11-21T05:12:37;3.10;;;1.83;;
209;SDS011;90;48.810;9.120;2023-11-21T05:15:06;2.10;;;1.77;;
209;SDS011;90;48.810;9.120;2023-11-21T05:17:34;2.00;;;1.90;;
209;SDS011;90;48.810;9.120;2023-11-21T05:20:01;4.50;;;1.70;;
209;SDS011;90;48.810;9.120;2023-11-21T05:22:33;2.20;;;1.90;;
209;SDS011;90;48.810;9.120;2023-11-21T05:25:00;1.90;;;1.60;;
209;SDS011;90;48.810;9.120;2023-11-21T05:27:28;2.20;;;1.90;;
209;SDS011;90;48.810;9.120;2023-11-21T05:29:54;4.03;;;2.07;;
209;SDS011;90;48.810;9.120;2023-11-21T05:32:23;1.80;;;1.80;;
209;SDS011;90;48.810;9.120;2023-11-21T05:34:50;1.90;;;1.90;;
209;SDS011;90;48.810;9.120;2023-11-21T05:37:16;2.90;;;2.07;;
209;SDS011;90;48.810;9.120;2023-11-21T05:39:43;5.77;;;2.20;;
209;SDS011;90;48.810;9.120;2023-11-21T05:42:10;3.30;;;2.10;;
209;SDS011;90;48.810;9.120;2023-11-21T05:44:37;6.80;;;2.27;;
209;SDS011;90;48.810;9.120;2023-11-21T05:47:07;4.10;;;2.10;;
209;SDS011;90;48.810;9.120;2023-11-21T05:49:35;3.20;;;1.90;;
209;SDS011;90;48.810;9.120;2023-11-21T05:52:02;2.20;;;1.77;;
209;SDS011;90;48.810;9.120;2023-11-21T05:54:30;4.60;;;2.10;;
209;SDS011;90;48.810;9.120;2023-11-21T05:56:56;2.17;;;1.80;;
209;SDS011;90;48.810;9.120;2023-11-21T05:59:24;1.97;;;1.70;;
209;SDS011;90;48.810;9.120;2023-11-21T06:01:51;3.10;;;2.10;;
209;SDS011;90;48.810;9.120;2023-11-21T06:04:18;4.43;;;2.10;;
209;SDS011;90;48.810;9.120;2023-11-21T06:06:50;2.03;;;1.70;;
209;SDS011;90;48.810;9.120;2023-11-21T06:09:17;2.30;;;1.83;;
209;SDS011;90;48.810;9.120;2023-11-21T06:11:44;2.37;;;1.70;;
209;SDS011;90;48.810;9.120;2023-11-21T06:14:10;2.07;;;1.77;;
209;SDS011;90;48.810;9.120;2023-11-21T06:16:37;2.53;;;2.10;;
209;SDS011;90;48.810;9.120;2023-11-21T06:19:05;4.00;;;2.30;;
209;SDS011;90;48.810;9.120;2023-11-21T06:21:32;2.50;;;2.07;;
209;SDS011;90;48.810;9.120;2023-11-21T06:24:00;2.30;;;2.10;;
209;SDS011;90;48.810;9.120;2023-11-21T06:26:27;3.13;;;1.90;;
209;SDS011;90;48.810;9.120;2023-11-21T06:28:53;3.03;;;1.90;;
209;SDS011;90;48.810;9.120;2023-11-21T06:31:22;3.60;;;1.90;;
209;SDS011;90;48.810;9.120;2023-11-21T06:33:48;2.53;;;1.90;;
209;SDS011;90;48.810;9.120;2023-11-21T06:36:17;2.20;;;2.10;;
209;SDS011;90;48.810;9.120;2023-11-21T06:38:44;2.23;;;2.03;;
209;SDS011;90;48.810;9.120;2023-11-21T06:41:13;2.40;;;2.25;;
209;SDS011;90;48.810;9.120;2023-11-21T06:43:40;2.80;;;1.97;;
209;SDS011;90;48.810;9.120;2023-11-21T06:46:10;2.43;;;2.33;;
209;SDS011;90;48.810;9.120;2023-11-21T06:48:39;2.10;;;1.80;;
209;SDS011;90;48.810;9.120;2023-11-21T06:51:06;2.37;;;2.27;;
209;SDS011;90;48.810;9.120;2023-11-21T06:53:33;4.60;;;2.17;;
209;SDS011;90;48.810;9.120;2023-11-21T06:56:00;2.47;;;2.27;;
209;SDS011;90;48.810;9.120;2023-11-21T06:58:28;2.50;;;2.30;;
209;SDS011;90;48.810;9.120;2023-11-21T07:00:54;3.67;;;2.43;;
209;SDS011;90;48.810;9.120;2023-11-21T07:03:23;4.13;;;2.40;;
209;SDS011;90;48.810;9.120;2023-11-21T07:05:51;2.80;;;2.30;;
209;SDS011;90;48.810;9.120;2023-11-21T07:08:17;2.30;;;2.10;;
209;SDS011;90;48.810;9.120;2023-11-21T07:10:44;2.40;;;2.00;;
209;SDS011;90;48.810;9.120;2023-11-21T07:13:12;3.47;;;2.20;;
209;SDS011;90;48.810;9.120;2023-11-21T07:15:40;3.63;;;2.60;;
209;SDS011;90;48.810;9.120;2023-11-21T07:18:07;2.23;;;2.03;;
209;SDS011;90;48.810;9.120;2023-11-21T07:20:33;2.13;;;1.93;;
209;SDS011;90;48.810;9.120;2023-11-21T07:23:00;2.13;;;1.97;;
209;SDS011;90;48.810;9.120;2023-11-21T07:25:28;2.83;;;2.20;;
209;SDS011;90;48.810;9.120;2023-11-21T07:27:55;2.37;;;2.23;;
209;SDS011;90;48.810;9.120;2023-11-21T07:30:22;6.50;;;2.33;;
209;SDS011;90;48.810;9.120;2023-11-21T07:32:50;2.40;;;2.27;;
209;SDS011;90;48.810;9.120;2023-11-21T07:35:17;3.53;;;2.70;;
209;SDS011;90;48.810;9.120;2023-11-21T07:37:43;3.97;;;2.37;;
209;SDS011;90;48.810;9.120;2023-11-21T07:40:11;3.27;;;2.70;;
209;SDS011;90;48.810;9.120;2023-11-21T07:42:38;2.77;;;2.57;;
209;SDS011;90;48.810;9.120;2023-11-21T07:45:08;4.00;;;2.60;;
209;SDS011;90;48.810;9.120;2023-11-21T07:47:35;2.80;;;2.60;;
209;SDS011;90;48.810;9.120;2023-11-21T07:50:06;2.90;;;2.70;;
209;SDS011;90;48.810;9.120;2023-11-21T07:52:33;3.73;;;2.60;;
209;SDS011;90;48.810;9.120;2023-11-21T07:55:00;2.40;;;2.20;;
209;SDS011;90;48.810;9.120;2023-11-21T07:57:26;3.33;;;2.30;;
209;SDS011;90;48.810;9.120;2023-11-21T07:59:53;2.93;;;2.63;;
209;SDS011;90;48.810;9.120;2023-11-21T08:02:20;6.00;;;2.43;;
209;SDS011;90;48.810;9.120;2023-11-21T08:04:47;2.33;;;1.90;;
209;SDS011;90;48.810;9.120;2023-11-21T08:07:16;2.73;;;2.53;;
209;SDS011;90;48.810;9.120;2023-11-21T08:09:43;2.70;;;2.50;;
209;SDS011;90;48.810;9.120;2023-11-21T08:12:11;4.20;;;2.43;;
209;SDS011;90;48.810;9.120;2023-11-21T08:14:38;2.83;;;2.60;;
209;SDS011;90;48.810;9.120;2023-11-21T08:17:05;2.70;;;2.40;;
209;SDS011;90;48.810;9.120;2023-11-21T08:19:35;3.50;;;2.57;;
209;SDS011;90;48.810;9.120;2023-11-21T08:22:02;2.50;;;2.30;;
209;SDS011;90;48.810;9.120;2023-11-21T08:24:30;3.20;;;3.00;;
209;SDS011;90;48.810;9.120;2023-11-21T08:26:57;3.30;;;3.10;;
209;SDS011;90;48.810;9.120;2023-11-21T08:29:24;2.47;;;2.33;;
209;SDS011;90;48.810;9.120;2023-11-21T08:31:51;3.00;;;2.80;;
209;SDS011;90;48.810;9.120;2023-11-21T08:34:18;3.37;;;3.20;;
209;SDS011;90;48.810;9.120;2023-11-21T08:36:45;4.03;;;3.07;;
209;SDS011;90;48.810;9.120;2023-11-21T08:39:12;4.53;;;3.10;;
209;SDS011;90;48.810;9.120;2023-11-21T08:41:42;3.73;;;3.13;;
209;SDS011;90;48.810;9.120;2023-11-21T08:44:09;4.30;;;3.43;;
209;SDS011;90;48.810;9.120;2023-11-21T08:46:36;3.10;;;2.93;;
209;SDS011;90;48.810;9.120;2023-11-21T08:49:04;3.93;;;3.30;;
209;SDS011;90;48.810;9.120;2023-11-21T08:51:31;3.10;;;2.53;;
209;SDS011;90;48.810;9.120;2023-11-21T08:53:57;3.10;;;2.70;;
209;SDS011;90;48.810;9.120;2023-11-21T08:56:26;3.20;;;3.00;;
209;SDS011;90;48.810;9.120;2023-11-21T08:58:54;3.17;;;2.97;;
209;SDS011;90;48.810;9.120;2023-11-21T09:01:22;3.07;;;2.87;;
209;SDS011;90;48.810;9.120;2023-11-21T09:03:49;3.20;;;3.00;;
209;SDS011;90;48.810;9.120;2023-11-21T09:06:16;3.07;;;2.50;;
209;SDS011;90;48.810;9.120;2023-11-21T09:08:43;3.80;;;3.60;;
209;SDS011;90;48.810;9.120;2023-11-21T09:11:10;4.27;;;3.77;;
209;SDS011;90;48.810;9.120;2023-11-21T09:13:36;3.90;;;3.70;;
209;SDS011;90;48.810;9.120;2023-11-21T09:16:05;2.90;;;2.70;;
209;SDS011;90;48.810;9.120;2023-11-21T09:18:32;2.87;;;2.67;;
209;SDS011;90;48.810;9.120;2023-11-21T09:20:59;1.90;;;1.90;;
209;SDS011;90;48.810;9.120;2023-11-21T09:23:25;2.63;;;2.43;;
209;SDS011;90;48.810;9.120;2023-11-21T09:25:52;2.40;;;1.90;;
209;SDS011;90;48.810;9.120;2023-11-21T09:28:22;2.70;;;2.50;;
209;SDS011;90;48.810;9.120;2023-11-21T09:30:48;3.90;;;3.57;;
209;SDS011;90;48.810;9.120;2023-11-21T09:33:17;5.40;;;2.40;;
209;SDS011;90;48.810;9.120;2023-11-21T09:35:43;2.67;;;2.50;;
209;SDS011;90;48.810;9.120;2023-11-21T09:38:10;2.93;;;2.40;;
209;SDS011;90;48.810;9.120;2023-11-21T09:40:37;3.17;;;2.27;;
209;SDS011;90;48.810;9.120;2023-11-21T09:43:05;3.23;;;2.20;;
209;SDS011;90;48.810;9.120;2023-11-21T09:45:34;2.93;;;1.70;;
209;SDS011;90;48.810;9.120;2023-11-21T09:48:04;1.90;;;1.80;;
209;SDS011;90;48.810;9.120;2023-11-21T09:50:33;2.40;;;2.20;;
209;SDS011;90;48.810;9.120;2023-11-21T09:53:09;2.20;;;2.07;;
209;SDS011;90;48.810;9.120;2023-11-21T09:55:41;2.60;;;2.40;;
209;SDS011;90;48.810;9.120;2023-11-21T09:58:10;3.53;;;2.60;;
209;SDS011;90;48.810;9.120;2023-11-21T10:00:39;3.40;;;2.23;;
209;SDS011;90;48.810;9.120;2023-11-21T10:03:07;2.57;;;2.37;;
209;SDS011;90;48.810;9.120;2023-11-21T10:05:35;3.53;;;2.20;;
209;SDS011;90;48.810;9.120;2023-11-21T10:08:03;2.23;;;2.03;;
209;SDS011;90;48.810;9.120;2023-11-21T10:10:33;2.47;;;2.23;;
209;SDS011;90;48.810;9.120;2023-11-21T10:13:01;2.57;;;2.37;;
209;SDS011;90;48.810;9.120;2023-11-21T10:15:31;3.40;;;2.40;;
209;SDS011;90;48.810;9.120;2023-11-21T10:18:01;4.43;;;2.23;;
209;SDS011;90;48.810;9.120;2023-11-21T10:20:29;2.33;;;2.13;;
209;SDS011;90;48.810;9.120;2023-11-21T10:23:00;2.53;;;2.27;;
209;SDS011;90;48.810;9.120;2023-11-21T10:25:28;5.43;;;2.10;;
209;SDS011;90;48.810;9.120;2023-11-21T10:27:57;2.20;;;2.00;;
209;SDS011;90;48.810;9.120;2023-11-21T10:30:32;2.13;;;1.97;;
209;SDS011;90;48.810;9.120;2023-11-21T10:33:02;2.97;;;2.50;;
209;SDS011;90;48.810;9.120;2023-11-21T10:35:39;2.77;;;2.27;;
209;SDS011;90;48.810;9.120;2023-11-21T10:38:13;3.43;;;2.40;;
209;SDS011;90;48.810;9.120;2023-11-21T10:40:40;2.00;;;1.90;;
209;SDS011;90;48.810;9.120;2023-11-21T10:43:07;1.90;;;1.90;;
209;SDS011;90;48.810;9.120;2023-11-21T10:45:35;2.50;;;2.30;;
209;SDS011;90;48.810;9.120;2023-11-21T10:48:04;2.60;;;2.40;;
209;SDS011;90;48.810;9.120;2023-11-21T10:50:32;2.77;;;2.57;;
209;SDS011;90;48.810;9.120;2023-11-21T10:53:01;2.73;;;2.53;;
209;SDS011;90;48.810;9.120;2023-11-21T10:55:30;3.43;;;3.00;;
209;SDS011;90;48.810;9.120;2023-11-21T10:57:58;2.77;;;2.57;;
209;SDS011;90;48.810;9.120;2023-11-21T11:00:27;3.07;;;2.87;;
209;SDS011;90;48.810;9.120;2023-11-21T11:02:54;2.97;;;2.40;;
209;SDS011;90;48.810;9.120;2023-11-21T11:05:22;2.77;;;2.57;;
209;SDS011;90;48.810;9.120;2023-11-21T11:07:51;2.83;;;2.63;;
209;SDS011;90;48.810;9.120;2023-11-21T11:10:25;4.77;;;2.80;;
209;SDS011;90;48.810;9.120;2023-11-21T11:12:53;3.03;;;2.50;;
209;SDS011;90;48.810;9.120;2023-11-21T11:15:20;2.67;;;2.50;;
209;SDS011;90;48.810;9.120;2023-11-21T11:17:48;4.93;;;2.50;;
209;SDS011;90;48.810;9.120;2023-11-21T11:20:15;2.60;;;2.50;;
209;SDS011;90;48.810;9.120;2023-11-21T11:22:48;3.23;;;3.03;;
209;SDS011;90;48.810;9.120;2023-11-21T11:25:31;3.20;;;3.00;;
209;SDS011;90;48.810;9.120;2023-11-21T11:28:14;4.83;;;3.30;;
209;SDS011;90;48.810;9.120;2023-11-21T11:30:47;3.23;;;3.03;;
209;SDS011;90;48.810;9.120;2023-11-21T11:33:26;4.20;;;3.33;;
209;SDS011;90;48.810;9.120;2023-11-21T11:36:00;3.57;;;3.40;;
209;SDS011;90;48.810;9.120;2023-11-21T11:38:33;6.03;;;3.47;;
209;SDS011;90;48.810;9.120;2023-11-21T11:41:01;4.00;;;3.80;;
209;SDS011;90;48.810;9.120;2023-11-21T11:43:31;3.33;;;3.13;;
209;SDS011;90;48.810;9.120;2023-11-21T11:46:05;3.17;;;2.97;;
209;SDS011;90;48.810;9.120;2023-11-21T11:48:34;3.97;;;3.23;;
209;SDS011;90;48.810;9.120;2023-11-21T11:51:04;6.37;;;3.50;;
209;SDS011;90;48.810;9.120;2023-11-21T11:53:37;4.83;;;3.93;;
209;SDS011;90;48.810;9.120;2023-11-21T11:56:22;3.93;;;3.73;;
209;SDS011;90;48.810;9.120;2023-11-21T11:58:53;4.37;;;4.07;;
209;SDS011;90;48.810;9.120;2023-11-21T12:01:21;3.50;;;3.30;;
209;SDS011;90;48.810;9.120;2023-11-21T12:06:56;4.60;;;3.73;;
209;SDS011;90;48.810;9.120;2023-11-21T12:09:27;3.77;;;3.57;;
209;SDS011;90;48.810;9.120;2023-11-21T12:11:55;3.90;;;3.70;;
209;SDS011;90;48.810;9.120;2023-11-21T12:14:23;3.50;;;3.30;;
209;SDS011;90;48.810;9.120;2023-11-21T12:16:50;2.87;;;2.67;;
209;SDS011;90;48.810;9.120;2023-11-21T12:19:19;2.80;;;2.63;;
209;SDS011;90;48.810;9.120;2023-11-21T12:21:47;2.70;;;2.50;;
209;SDS011;90;48.810;9.120;2023-11-21T12:24:15;2.50;;;2.30;;
209;SDS011;90;48.810;9.120;2023-11-21T12:26:42;2.77;;;2.63;;
209;SDS011;90;48.810;9.120;2023-11-21T12:29:09;3.03;;;2.83;;
209;SDS011;90;48.810;9.120;2023-11-21T12:31:37;2.33;;;2.13;;
209;SDS011;90;48.810;9.120;2023-11-21T12:34:04;2.93;;;2.73;;
209;SDS011;90;48.810;9.120;2023-11-21T12:36:31;3.10;;;2.90;;
209;SDS011;90;48.810;9.120;2023-11-21T12:38:59;4.93;;;3.00;;
209;SDS011;90;48.810;9.120;2023-11-21T12:41:27;3.40;;;3.20;;
209;SDS011;90;48.810;9.120;2023-11-21T12:43:55;3.20;;;3.00;;
209;SDS011;90;48.810;9.120;2023-11-21T12:46:22;3.97;;;3.77;;
209;SDS011;90;48.810;9.120;2023-11-21T12:48:52;3.77;;;3.57;;
209;SDS011;90;48.810;9.120;2023-11-21T12:51:19;3.37;;;3.17;;
209;SDS011;90;48.810;9.120;2023-11-21T12:53:47;4.40;;;3.53;;
209;SDS011;90;48.810;9.120;2023-11-21T12:56:14;4.07;;;3.87;;
209;SDS011;90;48.810;9.120;2023-11-21T12:58:44;3.87;;;3.57;;
209;SDS011;90;48.810;9.120;2023-11-21T13:01:12;3.90;;;3.30;;
209;SDS011;90;48.810;9.120;2023-11-21T13:03:43;4.37;;;3.80;;
209;SDS011;90;48.810;9.120;2023-11-21T13:06:15;3.93;;;3.73;;
209;SDS011;90;48.810;9.120;2023-11-21T13:08:43;3.37;;;3.17;;
209;SDS011;90;48.810;9.120;2023-11-21T13:11:11;1.90;;;1.70;;
209;SDS011;90;48.810;9.120;2023-11-21T13:13:40;1.83;;;1.53;;
209;SDS011;90;48.810;9.120;2023-11-21T13:16:07;3.13;;;1.67;;
209;SDS011;90;48.810;9.120;2023-11-21T13:18:34;2.53;;;1.67;;
209;SDS011;90;48.810;9.120;2023-11-21T13:21:02;1.77;;;1.63;;
209;SDS011;90;48.810;9.120;2023-11-21T13:23:36;2.00;;;1.70;;
209;SDS011;90;48.810;9.120;2023-11-21T13:26:03;2.10;;;1.83;;
209;SDS011;90;48.810;9.120;2023-11-21T13:28:30;1.90;;;1.80;;
209;SDS011;90;48.810;9.120;2023-11-21T13:30:58;2.20;;;2.10;;
209;SDS011;90;48.810;9.120;2023-11-21T13:33:27;2.50;;;1.90;;
209;SDS011;90;48.810;9.120;2023-11-21T13:35:55;3.30;;;2.03;;
209;SDS011;90;48.810;9.120;2023-11-21T13:38:22;2.47;;;2.27;;
209;SDS011;90;48.810;9.120;2023-11-21T13:40:51;2.50;;;2.30;;
209;SDS011;90;48.810;9.120;2023-11-21T13:43:19;3.50;;;3.00;;
209;SDS011;90;48.810;9.120;2023-11-21T13:45:49;3.00;;;2.83;;
209;SDS011;90;48.810;9.120;2023-11-21T13:48:20;3.70;;;3.50;;
209;SDS011;90;48.810;9.120;2023-11-21T13:50:53;3.03;;;2.83;;
209;SDS011;90;48.810;9.120;2023-11-21T13:53:23;3.83;;;3.63;;
209;SDS011;90;48.810;9.120;2023-11-21T13:55:52;3.60;;;3.40;;
209;SDS011;90;48.810;9.120;2023-11-21T13:58:22;3.67;;;3.50;;
209;SDS011;90;48.810;9.120;2023-11-21T14:00:59;3.67;;;3.47;;
209;SDS011;90;48.810;9.120;2023-11-21T14:03:31;4.30;;;4.00;;
209;SDS011;90;48.810;9.120;2023-11-21T14:06:04;4.67;;;3.40;;
209;SDS011;90;48.810;9.120;2023-11-21T14:08:39;5.90;;;3.83;;
209;SDS011;90;48.810;9.120;2023-11-21T14:11:07;3.50;;;3.30;;
209;SDS011;90;48.810;9.120;2023-11-21T14:13:36;4.30;;;4.00;;
209;SDS011;90;48.810;9.120;2023-11-21T14:16:04;3.97;;;3.77;;
209;SDS011;90;48.810;9.120;2023-11-21T14:18:31;3.73;;;3.50;;
209;SDS011;90;48.810;9.120;2023-11-21T14:21:03;3.67;;;3.47;;
209;SDS011;90;48.810;9.120;2023-11-21T14:23:30;4.03;;;3.80;;
209;SDS011;90;48.810;9.120;2023-11-21T14:26:00;4.33;;;3.90;;
209;SDS011;90;48.810;9.120;2023-11-21T14:28:29;5.27;;;4.10;;
209;SDS011;90;48.810;9.120;2023-11-21T14:30:55;4.67;;;4.10;;
209;SDS011;90;48.810;9.120;2023-11-21T14:33:22;4.00;;;3.80;;
209;SDS011;90;48.810;9.120;2023-11-21T14:35:49;5.27;;;3.80;;
209;SDS011;90;48.810;9.120;2023-11-21T14:38:16;4.20;;;3.37;;
209;SDS011;90;48.810;9.120;2023-11-21T14:40:43;4.40;;;3.80;;
209;SDS011;90;48.810;9.120;2023-11-21T14:43:12;3.47;;;3.27;;
209;SDS011;90;48.810;9.120;2023-11-21T14:45:41;7.17;;;3.70;;
209;SDS011;90;48.810;9.120;2023-11-21T14:48:08;3.97;;;3.77;;
209;SDS011;90;48.810;9.120;2023-11-21T14:50:41;3.90;;;3.73;;
209;SDS011;90;48.810;9.120;2023-11-21T14:53:22;3.77;;;2.93;;
209;SDS011;90;48.810;9.120;2023-11-21T14:56:07;3.33;;;3.13;;
209;SDS011;90;48.810;9.120;2023-11-21T14:58:34;3.37;;;3.17;;
209;SDS011;90;48.810;9.120;2023-11-21T15:01:05;3.83;;;3.33;;
209;SDS011;90;48.810;9.120;2023-11-21T15:03:31;3.30;;;3.10;;
209;SDS011;90;48.810;9.120;2023-11-21T15:06:13;3.40;;;3.10;;
209;SDS011;90;48.810;9.120;2023-11-21T15:08:44;6.83;;;3.47;;
209;SDS011;90;48.810;9.120;2023-11-21T15:11:18;3.60;;;3.40;;
209;SDS011;90;48.810;9.120;2023-11-21T15:13:44;3.63;;;3.43;;
209;SDS011;90;48.810;9.120;2023-11-21T15:16:15;3.83;;;3.63;;
209;SDS011;90;48.810;9.120;2023-11-21T15:18:41;3.87;;;3.67;;
209;SDS011;90;48.810;9.120;2023-11-21T15:21:08;4.70;;;4.40;;
209;SDS011;90;48.810;9.120;2023-11-21T15:23:37;4.60;;;4.30;;
209;SDS011;90;48.810;9.120;2023-11-21T15:26:05;5.97;;;5.10;;
209;SDS011;90;48.810;9.120;2023-11-21T15:28:33;4.70;;;3.97;;
209;SDS011;90;48.810;9.120;2023-11-21T15:31:00;6.43;;;5.00;;
209;SDS011;90;48.810;9.120;2023-11-21T15:33:29;4.67;;;4.40;;
209;SDS011;90;48.810;9.120;2023-11-21T15:35:55;4.80;;;4.50;;
209;SDS011;90;48.810;9.120;2023-11-21T15:38:23;6.10;;;4.73;;
209;SDS011;90;48.810;9.120;2023-11-21T15:40:49;4.80;;;4.37;;
209;SDS011;90;48.810;9.120;2023-11-21T15:43:16;7.03;;;5.07;;
209;SDS011;90;48.810;9.120;2023-11-21T15:45:43;5.73;;;5.20;;
209;SDS011;90;48.810;9.120;2023-11-21T15:48:12;6.70;;;5.37;;
209;SDS011;90;48.810;9.120;2023-11-21T15:50:42;8.50;;;6.30;;
209;SDS011;90;48.810;9.120;2023-11-21T15:53:09;6.77;;;5.90;;
209;SDS011;90;48.810;9.120;2023-11-21T15:55:36;7.50;;;5.80;;
209;SDS011;90;48.810;9.120;2023-11-21T15:58:07;11.20;;;6.30;;
209;SDS011;90;48.810;9.120;2023-11-21T16:00:34;5.37;;;5.07;;
209;SDS011;90;48.810;9.120;2023-11-21T16:03:02;10.10;;;6.83;;
209;SDS011;90;48.810;9.120;2023-11-21T16:05:28;8.50;;;6.10;;
209;SDS011;90;48.810;9.120;2023-11-21T16:07:57;13.80;;;6.00;;
209;SDS011;90;48.810;9.120;2023-11-21T16:10:24;7.17;;;5.47;;